Aviation Digital Data Service (ADDS)

Output produced by METARs form (0653 UTC 17 January 2017)
found at http://aviationweather.gov/adds/metars/
 
KCAK 170525Z 1706/1806 14006KT 5SM -RA BR SCT008 OVC012 
     TEMPO 1707/1711 2SM -RA BR OVC008 
     FM171100 17012KT 4SM -RA BR SCT015 OVC025 
     FM172000 25012G20KT P6SM OVC015